Time;durP1;ratioP1;P1;durP2;ratioP2;P2;SDS_P1;SDS_P2;PMS_P1;PMS_P2;Temp;Humidity;BMP_temperature;BMP_pressure;BME280_temperature;BME280_humidity;BME280_pressure;Samples;Min_cycle;Max_cycle;Signal;HPM_P1;HPM_P2
2022/05/12 00:00:58;;;;;;;;;;;;;;;24.10;75.69;97671.13;5026588;28;20566;-84
2022/05/12 00:03:26;;;;;;;;;;;;;;;24.12;75.62;97682.47;4981729;28;19926;-85
2022/05/12 00:05:52;;;;;;;;;;;;;;;24.11;75.10;97671.91;4977373;28;19930;-85
2022/05/12 00:08:19;;;;;;;;;;;;;;;24.09;75.82;97674.97;4973545;28;20316;-86
2022/05/12 00:10:45;;;;;;;;;;;;;;;24.03;75.85;97670.16;4956693;28;19926;-86
2022/05/12 00:13:11;;;;;;;;;;;;;;;23.56;77.16;97675.69;4970649;28;19934;-85
2022/05/12 00:15:39;;;;;;;;;;;;;;;23.53;79.66;97676.38;4958555;28;20451;-86
2022/05/12 00:18:07;;;;;;;;;;;;;;;23.65;78.87;97677.09;4950436;28;20017;-85
2022/05/12 00:20:36;;;;;;;;;;;;;;;23.63;78.27;97684.84;4969865;28;19927;-85
2022/05/12 00:23:06;;;;;;;;;;;;;;;23.58;79.11;97687.81;4968884;28;19927;-85
2022/05/12 00:25:33;;;;;;;;;;;;;;;23.61;79.10;97687.09;4954684;28;19925;-85
2022/05/12 00:27:59;;;;;;;;;;;;;;;23.52;79.39;97683.00;5007878;28;19924;-86
2022/05/12 00:30:26;;;;;;;;;;;;;;;23.50;79.19;97680.63;5055487;28;19931;-86
2022/05/12 00:32:52;;;;;;;;;;;;;;;23.58;78.85;97676.13;4999366;28;19925;-86
2022/05/12 00:35:19;;;;;;;;;;;;;;;23.67;78.19;97680.22;5028425;28;19935;-89
2022/05/12 00:37:46;;;;;;;;;;;;;;;23.46;77.99;97679.72;5010550;28;20029;-84
2022/05/12 00:40:13;;;;;;;;;;;;;;;23.51;78.61;97681.41;4977382;28;19932;-84
2022/05/12 00:42:52;;;;;;;;;;;;;;;23.57;78.42;97678.06;4972890;28;19926;-84
2022/05/12 00:45:19;;;;;;;;;;;;;;;23.54;77.80;97665.16;4967923;28;20010;-84
2022/05/12 00:47:45;;;;;;;;;;;;;;;23.51;77.82;97676.75;4960079;28;19928;-85
2022/05/12 00:50:11;;;;;;;;;;;;;;;23.55;77.59;97677.59;5020487;28;19936;-86
2022/05/12 00:52:40;;;;;;;;;;;;;;;23.49;76.76;97678.22;5008374;28;19926;-84
2022/05/12 00:55:13;;;;;;;;;;;;;;;23.50;77.07;97675.16;4981067;28;20199;-85
2022/05/12 00:57:40;;;;;;;;;;;;;;;23.59;76.71;97681.22;4964533;28;19930;-84
2022/05/12 01:00:08;;;;;;;;;;;;;;;23.61;76.68;97689.81;5026089;28;20552;-84
2022/05/12 01:02:35;;;;;;;;;;;;;;;23.61;76.19;97681.66;4985346;28;20018;-84
2022/05/12 01:05:01;;;;;;;;;;;;;;;23.53;76.38;97685.38;5016833;28;19939;-84
2022/05/12 01:07:28;;;;;;;;;;;;;;;23.51;77.15;97684.94;5029000;28;19929;-84
2022/05/12 01:09:54;;;;;;;;;;;;;;;23.44;77.33;97682.03;5040297;28;19928;-84
2022/05/12 01:12:22;;;;;;;;;;;;;;;23.48;77.36;97691.09;5039374;28;19929;-84
2022/05/12 01:14:49;;;;;;;;;;;;;;;23.53;77.21;97695.47;5060414;28;20133;-85
2022/05/12 01:17:17;;;;;;;;;;;;;;;23.50;77.77;97691.53;5033709;28;19925;-84
2022/05/12 01:19:43;;;;;;;;;;;;;;;23.44;78.07;97687.47;5034688;28;20176;-85
2022/05/12 01:22:11;;;;;;;;;;;;;;;23.36;78.53;97693.88;4982918;28;19930;-84
2022/05/12 01:24:40;;;;;;;;;;;;;;;23.18;79.93;97689.88;4967988;28;20472;-84
2022/05/12 01:27:19;;;;;;;;;;;;;;;23.21;80.26;97689.19;4962136;28;20023;-85
2022/05/12 01:29:46;;;;;;;;;;;;;;;23.31;79.42;97691.38;4965096;28;19933;-84
2022/05/12 01:32:12;;;;;;;;;;;;;;;23.22;80.13;97689.97;4950719;28;20631;-85
2022/05/12 01:34:39;;;;;;;;;;;;;;;23.24;80.44;97676.81;4967503;28;19930;-85
2022/05/12 01:37:05;;;;;;;;;;;;;;;23.07;81.35;97681.44;4976371;28;20562;-85
2022/05/12 01:39:35;;;;;;;;;;;;;;;22.88;82.50;97678.59;4964289;28;19930;-84
2022/05/12 01:42:03;;;;;;;;;;;;;;;22.92;82.93;97684.94;4977272;28;19932;-85
2022/05/12 01:44:29;;;;;;;;;;;;;;;22.95;82.67;97694.34;4954818;28;19926;-86
2022/05/12 01:46:56;;;;;;;;;;;;;;;23.15;81.47;97684.38;4963865;28;20490;-84
2022/05/12 01:49:23;;;;;;;;;;;;;;;23.10;81.20;97685.41;4952661;28;19973;-85
2022/05/12 01:51:51;;;;;;;;;;;;;;;23.07;81.73;97689.63;4979969;28;19933;-85
2022/05/12 01:54:18;;;;;;;;;;;;;;;23.10;81.32;97693.56;4969803;28;19964;-85
2022/05/12 01:56:44;;;;;;;;;;;;;;;22.84;82.47;97687.81;4957157;28;20024;-84
2022/05/12 01:59:12;;;;;;;;;;;;;;;22.90;82.57;97681.00;4965027;28;19927;-84
2022/05/12 02:01:38;;;;;;;;;;;;;;;23.04;81.93;97692.25;5001235;28;20402;-84
2022/05/12 02:04:05;;;;;;;;;;;;;;;23.10;81.23;97696.28;4994530;28;20600;-84
2022/05/12 02:06:32;;;;;;;;;;;;;;;23.11;81.36;97695.16;4960196;28;20324;-84
2022/05/12 02:08:58;;;;;;;;;;;;;;;23.01;81.77;97709.28;4973651;28;19958;-84
2022/05/12 02:11:25;;;;;;;;;;;;;;;22.98;81.79;97709.97;4972607;28;19986;-84
2022/05/12 02:13:51;;;;;;;;;;;;;;;22.94;82.12;97712.59;4970490;28;19937;-84
2022/05/12 02:16:19;;;;;;;;;;;;;;;23.01;81.84;97728.34;4976662;28;19933;-85
2022/05/12 02:18:45;;;;;;;;;;;;;;;23.03;81.26;97720.63;4971659;28;19929;-84
2022/05/12 02:21:12;;;;;;;;;;;;;;;22.97;81.82;97730.19;4969653;28;20024;-84
2022/05/12 02:23:39;;;;;;;;;;;;;;;22.90;82.11;97719.88;4948843;28;20015;-84
2022/05/12 02:26:06;;;;;;;;;;;;;;;22.96;81.83;97731.34;4971247;28;19926;-85
2022/05/12 02:28:32;;;;;;;;;;;;;;;22.77;82.43;97734.69;4953840;28;20094;-84
2022/05/12 02:30:59;;;;;;;;;;;;;;;22.80;81.62;97744.91;4949649;28;19936;-84
2022/05/12 02:33:26;;;;;;;;;;;;;;;22.17;85.93;97738.34;4945892;28;19931;-84
2022/05/12 02:35:53;;;;;;;;;;;;;;;22.34;85.25;97738.09;4979268;28;20314;-84
2022/05/12 02:38:19;;;;;;;;;;;;;;;22.49;84.51;97740.09;4971256;28;19998;-84
2022/05/12 02:40:46;;;;;;;;;;;;;;;22.48;84.17;97743.94;4968185;28;19937;-85
2022/05/12 02:43:24;;;;;;;;;;;;;;;22.28;84.78;97736.72;4965278;28;20389;-84
2022/05/12 02:45:50;;;;;;;;;;;;;;;22.43;84.17;97738.75;4964004;28;19930;-84
2022/05/12 02:48:17;;;;;;;;;;;;;;;22.55;83.60;97737.91;4974356;28;19930;-85
2022/05/12 02:50:45;;;;;;;;;;;;;;;22.59;82.78;97736.88;4950727;28;20296;-85
2022/05/12 02:53:11;;;;;;;;;;;;;;;22.47;83.16;97739.63;4961393;28;19930;-86
2022/05/12 02:55:38;;;;;;;;;;;;;;;22.46;83.25;97751.66;4967332;28;19933;-86
2022/05/12 02:58:04;;;;;;;;;;;;;;;22.57;82.91;97750.03;4950261;28;19940;-85
2022/05/12 03:00:31;;;;;;;;;;;;;;;22.65;82.93;97752.97;4968164;28;19930;-83
2022/05/12 03:02:57;;;;;;;;;;;;;;;22.59;82.27;97750.47;4959857;28;20454;-86
2022/05/12 03:05:24;;;;;;;;;;;;;;;22.70;81.79;97747.31;4976281;28;20563;-84
2022/05/12 03:07:52;;;;;;;;;;;;;;;22.46;83.43;97751.66;4954988;28;19932;-85
2022/05/12 03:10:18;;;;;;;;;;;;;;;22.53;83.45;97748.34;4961726;28;20406;-84
2022/05/12 03:12:44;;;;;;;;;;;;;;;22.62;82.75;97751.75;4975968;28;19948;-85
2022/05/12 03:15:12;;;;;;;;;;;;;;;22.64;82.41;97745.94;4979531;28;20020;-84
2022/05/12 03:17:43;;;;;;;;;;;;;;;22.67;82.51;97751.53;4969947;28;21280;-83
2022/05/12 03:20:10;;;;;;;;;;;;;;;22.69;82.00;97751.97;4964347;28;19965;-84
2022/05/12 03:22:37;;;;;;;;;;;;;;;22.73;82.02;97765.69;4967231;28;20401;-84
2022/05/12 03:25:08;;;;;;;;;;;;;;;22.60;82.90;97764.88;4979471;28;20021;-83
2022/05/12 03:27:35;;;;;;;;;;;;;;;22.58;83.13;97776.13;4958659;28;19933;-84
2022/05/12 03:30:01;;;;;;;;;;;;;;;22.59;83.20;97766.81;4962402;28;19930;-84
2022/05/12 03:32:27;;;;;;;;;;;;;;;22.60;83.19;97775.78;4959329;28;19930;-84
2022/05/12 03:34:54;;;;;;;;;;;;;;;22.64;83.14;97773.16;4963598;28;19930;-84
2022/05/12 03:37:20;;;;;;;;;;;;;;;22.66;83.05;97765.47;4944804;28;20155;-85
2022/05/12 03:39:46;;;;;;;;;;;;;;;22.66;83.15;97782.59;4962680;28;20344;-85
2022/05/12 03:42:18;;;;;;;;;;;;;;;22.65;83.04;97772.03;4959355;28;19926;-84
2022/05/12 03:44:47;;;;;;;;;;;;;;;22.58;83.70;97780.78;4956401;28;19925;-84
2022/05/12 03:47:14;;;;;;;;;;;;;;;22.63;83.37;97782.44;4963123;28;20017;-84
2022/05/12 03:49:40;;;;;;;;;;;;;;;22.64;83.27;97784.03;4970744;28;19937;-85
2022/05/12 03:52:07;;;;;;;;;;;;;;;22.57;84.04;97782.69;4978045;28;19926;-84
2022/05/12 03:54:34;;;;;;;;;;;;;;;22.55;84.20;97781.47;4974493;28;19951;-84
2022/05/12 03:57:00;;;;;;;;;;;;;;;22.11;86.75;97796.81;4974568;28;19926;-86
2022/05/12 03:59:28;;;;;;;;;;;;;;;21.72;89.76;97800.97;4973811;28;20036;-85
2022/05/12 04:01:54;;;;;;;;;;;;;;;21.98;88.64;97806.09;4982204;28;19979;-87
2022/05/12 04:04:21;;;;;;;;;;;;;;;22.16;87.38;97802.03;4973625;28;20050;-84
2022/05/12 04:06:47;;;;;;;;;;;;;;;22.17;87.28;97814.50;4962703;28;19930;-87
2022/05/12 04:09:13;;;;;;;;;;;;;;;22.19;87.72;97822.34;4979654;28;20595;-84
2022/05/12 04:11:40;;;;;;;;;;;;;;;22.27;87.30;97819.50;4950074;28;19937;-87
2022/05/12 04:14:06;;;;;;;;;;;;;;;22.33;87.02;97828.22;4976813;28;19934;-84
2022/05/12 04:16:36;;;;;;;;;;;;;;;22.40;87.01;97833.88;4970286;28;19933;-86
2022/05/12 04:19:05;;;;;;;;;;;;;;;22.51;85.89;97833.06;4967946;28;20058;-83
2022/05/12 04:21:34;;;;;;;;;;;;;;;22.41;87.05;97836.25;4974190;28;19937;-83
2022/05/12 04:24:01;;;;;;;;;;;;;;;22.34;87.44;97837.97;4971129;28;19937;-84
2022/05/12 04:26:27;;;;;;;;;;;;;;;22.39;87.47;97840.44;4966747;28;20427;-84
2022/05/12 04:28:53;;;;;;;;;;;;;;;22.47;86.97;97848.47;4972223;28;19925;-83
2022/05/12 04:31:20;;;;;;;;;;;;;;;22.48;87.03;97846.56;4960678;28;19949;-83
2022/05/12 04:36:31;;;;;;;;;;;;;;;22.50;87.73;97855.16;4968998;28;20379;-88
2022/05/12 04:38:59;;;;;;;;;;;;;;;22.51;87.50;97857.56;4977524;28;19934;-87
2022/05/12 04:41:25;;;;;;;;;;;;;;;22.52;87.71;97859.16;4966394;28;19934;-84
2022/05/12 04:43:54;;;;;;;;;;;;;;;22.46;88.08;97857.81;4965034;28;19926;-85
2022/05/12 04:46:21;;;;;;;;;;;;;;;22.30;89.00;97850.66;4966333;28;20467;-87
2022/05/12 04:48:49;;;;;;;;;;;;;;;22.11;90.54;97858.56;4971502;28;20511;-87
2022/05/12 04:51:15;;;;;;;;;;;;;;;22.25;89.77;97865.25;4968072;28;20104;-86
2022/05/12 04:53:41;;;;;;;;;;;;;;;22.33;89.42;97880.69;4970227;28;19930;-85
2022/05/12 04:56:08;;;;;;;;;;;;;;;22.18;90.31;97881.38;4951669;28;20320;-87
2022/05/12 04:58:34;;;;;;;;;;;;;;;21.52;96.87;97884.13;4969548;28;20248;-84
2022/05/12 05:01:00;;;;;;;;;;;;;;;21.14;100.00;97882.72;4968258;28;20345;-84
2022/05/12 05:03:27;;;;;;;;;;;;;;;21.54;96.27;97895.47;4972780;28;19937;-84
2022/05/12 05:05:54;;;;;;;;;;;;;;;21.81;94.00;97896.00;4981488;28;20100;-83
2022/05/12 05:08:22;;;;;;;;;;;;;;;22.04;92.57;97908.09;4963018;28;20025;-84
2022/05/12 05:10:49;;;;;;;;;;;;;;;21.98;93.55;97909.44;4963735;28;20023;-85
2022/05/12 05:13:18;;;;;;;;;;;;;;;22.06;92.20;97914.00;4975361;28;19930;-86
2022/05/12 05:15:45;;;;;;;;;;;;;;;22.19;91.86;97921.03;4971292;28;19962;-85
2022/05/12 05:18:12;;;;;;;;;;;;;;;22.37;90.65;97918.91;4980085;28;19994;-84
2022/05/12 05:20:39;;;;;;;;;;;;;;;22.46;90.60;97920.41;4973984;28;20107;-85
2022/05/12 05:23:07;;;;;;;;;;;;;;;22.43;90.67;97926.50;4974259;28;20286;-85
2022/05/12 05:25:33;;;;;;;;;;;;;;;21.98;95.11;97925.75;4947603;28;20017;-86
2022/05/12 05:28:00;;;;;;;;;;;;;;;22.17;95.14;97931.47;4947252;28;19930;-83
2022/05/12 05:30:27;;;;;;;;;;;;;;;22.19;93.88;97926.47;4954709;28;19925;-84
2022/05/12 05:32:53;;;;;;;;;;;;;;;22.23;92.95;97932.84;4964486;28;20514;-84
2022/05/12 05:35:20;;;;;;;;;;;;;;;22.24;93.41;97928.19;4966927;28;20099;-84
2022/05/12 05:37:47;;;;;;;;;;;;;;;22.38;92.48;97940.31;4968587;28;20562;-86
2022/05/12 05:40:17;;;;;;;;;;;;;;;22.51;91.00;97944.66;4964796;28;19926;-85
2022/05/12 05:42:44;;;;;;;;;;;;;;;22.68;89.96;97938.22;4952475;28;20020;-85
2022/05/12 05:45:12;;;;;;;;;;;;;;;22.92;87.75;97945.56;4975250;28;20537;-84
2022/05/12 05:47:39;;;;;;;;;;;;;;;22.98;87.32;97946.94;4976281;28;20615;-84
2022/05/12 05:50:07;;;;;;;;;;;;;;;22.95;88.68;97942.16;4972866;28;19936;-84
2022/05/12 05:55:19;;;;;;;;;;;;;;;23.11;87.45;97956.69;4971022;28;20204;-84
2022/05/12 05:57:45;;;;;;;;;;;;;;;23.26;85.59;97955.97;4972704;28;20041;-84
2022/05/12 06:00:12;;;;;;;;;;;;;;;23.40;85.35;97961.06;4979695;28;20617;-84
2022/05/12 06:02:39;;;;;;;;;;;;;;;23.57;84.79;97947.94;4974562;28;20004;-86
2022/05/12 06:05:06;;;;;;;;;;;;;;;23.62;84.09;97960.53;4955689;28;20120;-85
2022/05/12 06:07:33;;;;;;;;;;;;;;;23.81;82.73;97973.53;5047731;28;20895;-84
2022/05/12 06:09:59;;;;;;;;;;;;;;;23.69;82.74;97960.75;4951770;28;19934;-84
2022/05/12 06:12:28;;;;;;;;;;;;;;;23.42;84.01;97969.69;4966573;28;20371;-82
2022/05/12 06:14:56;;;;;;;;;;;;;;;23.67;82.45;97971.97;4985375;28;20408;-85
2022/05/12 06:17:22;;;;;;;;;;;;;;;23.81;82.24;97982.50;4957098;28;19936;-84
2022/05/12 06:19:50;;;;;;;;;;;;;;;23.88;81.50;97984.63;4967220;28;19957;-84
2022/05/12 06:22:18;;;;;;;;;;;;;;;23.91;82.05;97992.13;4973301;28;20018;-83
2022/05/12 06:24:45;;;;;;;;;;;;;;;24.07;79.30;97984.78;4967054;28;19933;-83
2022/05/12 06:27:11;;;;;;;;;;;;;;;23.99;81.32;97991.16;4943715;28;20005;-85
2022/05/12 06:29:41;;;;;;;;;;;;;;;23.81;80.97;97989.88;4947805;28;19977;-85
2022/05/12 06:32:08;;;;;;;;;;;;;;;23.96;81.02;98002.78;4967337;28;19964;-85
2022/05/12 06:34:34;;;;;;;;;;;;;;;24.13;79.37;97997.06;4982487;28;19932;-85
2022/05/12 06:37:00;;;;;;;;;;;;;;;24.17;79.36;97995.19;4974045;28;19930;-85
2022/05/12 06:39:27;;;;;;;;;;;;;;;24.37;78.00;98005.09;4969764;28;19932;-84
2022/05/12 06:41:53;;;;;;;;;;;;;;;24.37;77.97;98002.38;4973547;28;20161;-85
2022/05/12 06:44:20;;;;;;;;;;;;;;;24.48;77.39;98000.69;4984406;28;19930;-85
2022/05/12 06:46:47;;;;;;;;;;;;;;;24.58;77.03;98007.56;4958141;28;20601;-84
2022/05/12 06:49:14;;;;;;;;;;;;;;;24.57;75.61;98017.69;4979097;28;19926;-83
2022/05/12 06:51:40;;;;;;;;;;;;;;;24.63;73.04;98020.97;4978017;28;20043;-83
2022/05/12 06:54:08;;;;;;;;;;;;;;;24.68;71.34;98017.97;4967677;28;20007;-84
2022/05/12 06:56:37;;;;;;;;;;;;;;;24.69;70.11;98014.91;4951894;28;19934;-84
2022/05/12 06:59:07;;;;;;;;;;;;;;;24.65;67.47;98030.41;4954243;28;19937;-86
2022/05/12 07:01:34;;;;;;;;;;;;;;;24.76;70.13;98018.97;4985987;28;19979;-85
2022/05/12 07:04:01;;;;;;;;;;;;;;;24.84;68.70;98024.28;4983107;28;20448;-83
2022/05/12 07:06:28;;;;;;;;;;;;;;;24.95;66.96;98024.50;4959824;28;20048;-84
2022/05/12 07:08:56;;;;;;;;;;;;;;;24.97;67.27;98030.44;4974136;28;19932;-84
2022/05/12 07:11:23;;;;;;;;;;;;;;;25.05;66.45;98030.25;4954822;28;19937;-84
2022/05/12 07:13:49;;;;;;;;;;;;;;;25.18;67.13;98031.72;4977571;28;19926;-84
2022/05/12 07:16:16;;;;;;;;;;;;;;;25.33;65.93;98042.97;4974919;28;20011;-85
2022/05/12 07:18:42;;;;;;;;;;;;;;;25.08;61.50;98039.66;4975494;28;19930;-84
2022/05/12 07:26:40;;;;;;;;;;;;;;;24.73;63.78;98054.00;5045661;28;19963;-84
2022/05/12 07:29:08;;;;;;;;;;;;;;;24.86;65.74;98049.28;4982041;28;19926;-84
2022/05/12 07:31:34;;;;;;;;;;;;;;;24.98;65.35;98045.66;4975525;28;19926;-84
2022/05/12 07:34:01;;;;;;;;;;;;;;;24.93;64.51;98056.88;4960064;28;19998;-83
2022/05/12 07:36:30;;;;;;;;;;;;;;;24.80;65.67;98063.53;4972986;28;19930;-84
2022/05/12 07:38:56;;;;;;;;;;;;;;;24.83;66.03;98068.31;4970424;28;20028;-84
2022/05/12 07:41:23;;;;;;;;;;;;;;;24.86;66.62;98073.06;4981297;28;19936;-87
2022/05/12 07:43:51;;;;;;;;;;;;;;;24.85;66.63;98071.50;4975216;28;20428;-84
2022/05/12 07:46:21;;;;;;;;;;;;;;;24.85;64.92;98076.97;4971823;28;19926;-83
2022/05/12 07:48:48;;;;;;;;;;;;;;;24.70;64.81;98075.75;4973615;28;19997;-85
2022/05/12 07:51:15;;;;;;;;;;;;;;;24.55;66.59;98076.53;4968168;28;19925;-84
2022/05/12 07:53:42;;;;;;;;;;;;;;;24.58;66.52;98079.38;4966333;28;20405;-85
2022/05/12 07:56:10;;;;;;;;;;;;;;;24.56;63.95;98078.13;4965089;28;20420;-84
2022/05/12 07:58:36;;;;;;;;;;;;;;;24.44;64.86;98070.81;4974052;28;19957;-85
2022/05/12 08:01:03;;;;;;;;;;;;;;;24.54;66.05;98075.75;4981968;28;20408;-84
2022/05/12 08:03:29;;;;;;;;;;;;;;;24.49;67.25;98073.28;4979617;28;19933;-84
2022/05/12 08:05:56;;;;;;;;;;;;;;;24.63;66.91;98081.06;4977385;28;19990;-84
2022/05/12 08:08:22;;;;;;;;;;;;;;;24.55;67.10;98087.47;4950771;28;19936;-86
2022/05/12 08:10:50;;;;;;;;;;;;;;;24.61;67.82;98084.13;4971932;28;20782;-84
2022/05/12 08:13:16;;;;;;;;;;;;;;;24.46;68.41;98093.09;4967990;28;19930;-84
2022/05/12 08:15:42;;;;;;;;;;;;;;;24.39;68.76;98089.34;4973850;28;20433;-84
2022/05/12 08:18:09;;;;;;;;;;;;;;;24.44;68.92;98095.38;4958809;28;19936;-83
2022/05/12 08:20:35;;;;;;;;;;;;;;;24.41;69.13;98098.00;4960024;28;19934;-86
2022/05/12 08:23:04;;;;;;;;;;;;;;;24.51;67.84;98095.56;4966554;28;19930;-84
2022/05/12 08:25:31;;;;;;;;;;;;;;;24.54;68.85;98096.81;4972743;28;19926;-83
2022/05/12 08:27:58;;;;;;;;;;;;;;;24.69;68.13;98096.03;4976606;28;19936;-84
2022/05/12 08:30:25;;;;;;;;;;;;;;;24.81;68.01;98092.44;4972244;28;19930;-84
2022/05/12 08:32:52;;;;;;;;;;;;;;;24.83;68.15;98101.91;4980004;28;19926;-85
2022/05/12 08:35:18;;;;;;;;;;;;;;;24.80;69.33;98088.91;4963946;28;19934;-84
2022/05/12 08:37:45;;;;;;;;;;;;;;;25.02;68.53;98103.94;4953712;28;19926;-85
2022/05/12 08:40:16;;;;;;;;;;;;;;;25.10;67.15;98097.47;4978087;28;19926;-83
2022/05/12 08:42:44;;;;;;;;;;;;;;;25.15;66.23;98098.03;4964565;28;20312;-85
2022/05/12 08:45:13;;;;;;;;;;;;;;;25.29;65.34;98107.69;4954560;28;20029;-84
2022/05/12 08:47:42;;;;;;;;;;;;;;;25.36;65.75;98095.00;4968445;28;19930;-85
2022/05/12 08:50:09;;;;;;;;;;;;;;;25.33;66.43;98101.19;4965229;28;20149;-84
2022/05/12 08:52:39;;;;;;;;;;;;;;;25.39;65.98;98101.69;4979072;28;19926;-85
2022/05/12 08:55:09;;;;;;;;;;;;;;;25.36;65.35;98111.41;4958913;28;20595;-85
2022/05/12 08:57:37;;;;;;;;;;;;;;;25.26;65.83;98109.22;4970359;28;20325;-84
2022/05/12 09:00:07;;;;;;;;;;;;;;;25.29;64.20;98113.97;4964737;28;20420;-85
2022/05/12 09:02:42;;;;;;;;;;;;;;;25.32;64.56;98110.53;4974521;28;19926;-83
2022/05/12 09:05:11;;;;;;;;;;;;;;;25.34;64.02;98110.97;4975936;28;19929;-85
2022/05/12 09:07:41;;;;;;;;;;;;;;;25.23;65.41;98110.72;4947978;28;19930;-85
2022/05/12 09:10:11;;;;;;;;;;;;;;;25.24;66.03;98120.50;4968957;28;19940;-84
2022/05/12 09:12:41;;;;;;;;;;;;;;;25.26;65.83;98125.59;4969676;28;19925;-84
2022/05/12 09:15:10;;;;;;;;;;;;;;;25.28;64.91;98125.28;4969914;28;19926;-85
2022/05/12 09:17:40;;;;;;;;;;;;;;;25.34;65.37;98121.91;4951644;28;20098;-84
2022/05/12 09:20:09;;;;;;;;;;;;;;;25.37;65.26;98121.22;4968520;28;20165;-86
2022/05/12 09:22:36;;;;;;;;;;;;;;;25.37;65.55;98115.75;4956122;28;19926;-87
2022/05/12 09:25:03;;;;;;;;;;;;;;;25.43;66.00;98127.19;4965374;28;19933;-85
2022/05/12 09:27:32;;;;;;;;;;;;;;;25.34;66.71;98116.44;4977447;28;20455;-85
2022/05/12 09:29:59;;;;;;;;;;;;;;;25.58;64.54;98121.72;4951642;28;19958;-86
2022/05/12 09:32:26;;;;;;;;;;;;;;;25.59;65.38;98115.09;4961940;28;19926;-85
2022/05/12 09:35:12;;;;;;;;;;;;;;;25.68;64.95;98121.19;4945968;28;19926;-86
2022/05/12 09:37:40;;;;;;;;;;;;;;;25.55;65.67;98132.59;4953954;28;19933;-83
2022/05/12 09:40:18;;;;;;;;;;;;;;;25.53;66.08;98127.47;4977904;28;19926;-84
2022/05/12 09:42:45;;;;;;;;;;;;;;;25.41;65.97;98122.06;4978429;28;19925;-86
2022/05/12 09:45:21;;;;;;;;;;;;;;;25.48;65.37;98127.72;4960406;28;20168;-83
2022/05/12 09:47:48;;;;;;;;;;;;;;;25.39;67.33;98131.78;4967822;28;20155;-86
2022/05/12 09:50:20;;;;;;;;;;;;;;;25.48;66.71;98127.72;4950670;28;20385;-83
2022/05/12 09:52:57;;;;;;;;;;;;;;;25.45;64.52;98130.34;4969324;28;20642;-85
2022/05/12 09:55:25;;;;;;;;;;;;;;;25.38;66.21;98130.22;4968535;28;19930;-86
2022/05/12 09:57:53;;;;;;;;;;;;;;;25.47;66.98;98142.53;4950010;28;20011;-86
2022/05/12 10:00:32;;;;;;;;;;;;;;;25.47;67.91;98137.06;4967303;28;19934;-85
2022/05/12 10:08:41;;;;;;;;;;;;;;;25.58;66.88;98134.63;4964083;28;20306;-84
2022/05/12 10:11:09;;;;;;;;;;;;;;;25.58;67.28;98132.69;4992804;28;20021;-85
2022/05/12 10:13:39;;;;;;;;;;;;;;;25.70;66.62;98124.34;4966155;28;19962;-85
2022/05/12 10:16:07;;;;;;;;;;;;;;;25.80;64.86;98122.22;4963645;28;19926;-84
2022/05/12 10:18:35;;;;;;;;;;;;;;;25.90;64.91;98122.47;4963216;28;20581;-84
2022/05/12 10:21:11;;;;;;;;;;;;;;;25.96;65.44;98117.50;5046169;28;19965;-84
2022/05/12 10:23:41;;;;;;;;;;;;;;;26.01;64.87;98128.16;4963964;28;20468;-84
2022/05/12 10:26:11;;;;;;;;;;;;;;;26.17;64.82;98112.50;4962670;28;20032;-83
2022/05/12 10:28:44;;;;;;;;;;;;;;;26.16;64.50;98113.63;4970247;28;19926;-84
2022/05/12 10:31:22;;;;;;;;;;;;;;;26.12;65.33;98115.50;4978666;28;20092;-84
2022/05/12 10:33:53;;;;;;;;;;;;;;;26.16;64.17;98108.16;4962562;28;20029;-85
2022/05/12 10:36:30;;;;;;;;;;;;;;;26.18;66.16;98116.81;4957997;28;19930;-85
2022/05/12 10:39:02;;;;;;;;;;;;;;;26.26;66.11;98113.06;4950522;28;19956;-82
2022/05/12 10:41:33;;;;;;;;;;;;;;;26.34;65.99;98120.25;4966621;28;20289;-82
2022/05/12 10:44:06;;;;;;;;;;;;;;;26.28;63.89;98110.75;4968779;28;19933;-82
2022/05/12 10:46:37;;;;;;;;;;;;;;;26.24;63.38;98124.34;4977844;28;19979;-84
2022/05/12 10:49:10;;;;;;;;;;;;;;;26.30;63.61;98119.41;4949430;28;19937;-84
2022/05/12 10:51:45;;;;;;;;;;;;;;;26.41;63.56;98122.34;4955492;28;19926;-82
2022/05/12 10:54:18;;;;;;;;;;;;;;;26.51;62.22;98113.56;4955105;28;19926;-84
2022/05/12 10:56:48;;;;;;;;;;;;;;;26.57;62.70;98121.13;4937908;28;20365;-84
2022/05/12 10:59:25;;;;;;;;;;;;;;;26.35;60.38;98101.88;4955960;28;19930;-84
2022/05/12 11:01:54;;;;;;;;;;;;;;;26.23;63.29;98127.47;4960515;28;20187;-84
2022/05/12 11:04:22;;;;;;;;;;;;;;;26.34;64.72;98120.25;4977980;28;20464;-84
2022/05/12 11:06:53;;;;;;;;;;;;;;;26.20;61.89;98114.50;4951908;28;20036;-85
2022/05/12 11:09:25;;;;;;;;;;;;;;;26.17;60.94;98109.75;4947369;28;20147;-83
2022/05/12 11:11:52;;;;;;;;;;;;;;;26.11;60.92;98111.16;4945591;28;20273;-83
2022/05/12 11:14:22;;;;;;;;;;;;;;;26.26;62.63;98115.81;4950087;28;19969;-84
2022/05/12 11:16:50;;;;;;;;;;;;;;;26.24;61.71;98118.13;4968023;28;20530;-84
2022/05/12 11:19:18;;;;;;;;;;;;;;;26.26;63.80;98108.38;4970882;28;20107;-84
2022/05/12 11:21:51;;;;;;;;;;;;;;;26.33;63.82;98110.47;4944806;28;19945;-84
2022/05/12 11:24:31;;;;;;;;;;;;;;;26.46;62.72;98100.94;4945765;28;20036;-89
2022/05/12 11:27:12;;;;;;;;;;;;;;;26.57;61.32;98101.94;4967758;28;19941;-83
2022/05/12 11:29:48;;;;;;;;;;;;;;;26.52;63.13;98102.22;4973379;28;19932;-84
2022/05/12 11:32:25;;;;;;;;;;;;;;;26.44;62.82;98097.78;4966158;28;19926;-85
2022/05/12 11:34:52;;;;;;;;;;;;;;;26.49;62.02;98094.72;4968742;28;19930;-84
2022/05/12 11:37:30;;;;;;;;;;;;;;;26.50;61.12;98093.59;4981029;28;20431;-84
2022/05/12 11:39:59;;;;;;;;;;;;;;;26.50;60.31;98087.31;4969258;28;19958;-84
2022/05/12 11:42:26;;;;;;;;;;;;;;;26.40;60.45;98096.91;4967860;28;19927;-83
2022/05/12 11:44:56;;;;;;;;;;;;;;;26.42;60.97;98108.31;4970044;28;19930;-83
2022/05/12 11:47:40;;;;;;;;;;;;;;;26.36;60.93;98087.03;4966723;28;20051;-85
2022/05/12 11:50:24;;;;;;;;;;;;;;;26.50;61.41;98090.03;4966913;28;20427;-86
2022/05/12 11:53:00;;;;;;;;;;;;;;;26.46;60.77;98076.28;4948059;28;19977;-85
2022/05/12 11:55:29;;;;;;;;;;;;;;;26.52;59.64;98082.28;4968070;28;19926;-83
2022/05/12 11:57:58;;;;;;;;;;;;;;;26.52;59.47;98085.00;4968652;28;20397;-83
2022/05/12 12:00:41;;;;;;;;;;;;;;;26.41;60.23;98082.06;4965196;28;19926;-83
2022/05/12 12:03:22;;;;;;;;;;;;;;;26.58;58.18;98080.81;4956318;28;19988;-85
2022/05/12 12:06:00;;;;;;;;;;;;;;;26.61;57.62;98077.34;4943368;28;19946;-84
2022/05/12 12:08:44;;;;;;;;;;;;;;;26.55;58.70;98074.13;4960923;28;20567;-83
2022/05/12 12:11:26;;;;;;;;;;;;;;;26.68;58.41;98077.47;4967782;28;20010;-84
2022/05/12 12:13:53;;;;;;;;;;;;;;;26.74;58.65;98068.59;4971419;28;19926;-84
2022/05/12 12:16:20;;;;;;;;;;;;;;;26.83;56.65;98071.13;4966655;28;20017;-82
2022/05/12 12:18:59;;;;;;;;;;;;;;;26.50;58.46;98076.34;4971986;28;19934;-83
2022/05/12 12:21:35;;;;;;;;;;;;;;;26.62;58.78;98070.69;4963320;28;19926;-82
2022/05/12 12:24:08;;;;;;;;;;;;;;;26.80;58.51;98058.94;4964738;28;19926;-84
2022/05/12 12:26:38;;;;;;;;;;;;;;;26.59;59.99;98061.28;4966455;28;20029;-85
2022/05/12 12:29:16;;;;;;;;;;;;;;;26.55;57.78;98071.41;4949867;28;20103;-83
2022/05/12 12:31:44;;;;;;;;;;;;;;;26.63;53.84;98051.19;4960638;28;20105;-83
2022/05/12 12:34:17;;;;;;;;;;;;;;;26.64;54.04;98058.25;4960818;28;20004;-86
2022/05/12 12:37:05;;;;;;;;;;;;;;;26.50;55.80;98052.50;4970128;28;20043;-83
2022/05/12 12:39:36;;;;;;;;;;;;;;;26.35;57.42;98066.28;4968944;28;19937;-83
2022/05/12 12:42:20;;;;;;;;;;;;;;;26.40;58.54;98053.09;4952968;28;19929;-84
2022/05/12 12:44:48;;;;;;;;;;;;;;;26.60;56.49;98045.63;4943693;28;19930;-85
2022/05/12 12:47:21;;;;;;;;;;;;;;;26.54;57.56;98050.63;4970034;28;20427;-83
2022/05/12 12:49:50;;;;;;;;;;;;;;;26.58;53.84;98048.75;4943035;28;20101;-84
2022/05/12 12:52:17;;;;;;;;;;;;;;;26.57;56.00;98051.84;4949226;28;19933;-85
2022/05/12 12:57:30;;;;;;;;;;;;;;;26.72;55.07;98042.72;4966007;28;19948;-83
2022/05/12 12:59:58;;;;;;;;;;;;;;;26.61;57.01;98039.81;4964819;28;19926;-84
2022/05/12 13:02:29;;;;;;;;;;;;;;;26.73;56.05;98036.09;4973558;28;20464;-85
2022/05/12 13:04:59;;;;;;;;;;;;;;;26.72;56.38;98024.34;4951147;28;19936;-84
2022/05/12 13:07:27;;;;;;;;;;;;;;;26.72;56.93;98031.75;4976625;28;19980;-83
2022/05/12 13:09:54;;;;;;;;;;;;;;;26.92;56.82;98033.31;4955874;28;19932;-84
2022/05/12 13:12:22;;;;;;;;;;;;;;;27.01;54.51;98033.84;4963716;28;20732;-83
2022/05/12 13:14:52;;;;;;;;;;;;;;;26.88;55.73;98020.69;4973679;28;19977;-83